sensor_id;sensor_type;location;lat;lon;timestamp;temperature;humidity
18741;DHT22;9499;52.472;13.448;2023-07-20T00:01:29;17.70;99.90
18741;DHT22;9499;52.472;13.448;2023-07-20T00:03:55;17.80;99.90
18741;DHT22;9499;52.472;13.448;2023-07-20T00:06:22;17.80;99.90
18741;DHT22;9499;52.472;13.448;2023-07-20T00:08:50;17.80;99.90
18741;DHT22;9499;52.472;13.448;2023-07-20T00:11:16;17.70;99.90
18741;DHT22;9499;52.472;13.448;2023-07-20T00:13:44;17.70;99.90
18741;DHT22;9499;52.472;13.448;2023-07-20T00:16:11;17.70;99.90
18741;DHT22;9499;52.472;13.448;2023-07-20T00:18:37;17.60;99.90
18741;DHT22;9499;52.472;13.448;2023-07-20T00:21:04;17.60;99.90
18741;DHT22;9499;52.472;13.448;2023-07-20T00:23:30;17.50;99.90
18741;DHT22;9499;52.472;13.448;2023-07-20T00:25:56;17.50;99.90
18741;DHT22;9499;52.472;13.448;2023-07-20T00:28:23;17.50;99.90
18741;DHT22;9499;52.472;13.448;2023-07-20T00:30:51;17.40;99.90
18741;DHT22;9499;52.472;13.448;2023-07-20T00:33:18;17.40;99.90
18741;DHT22;9499;52.472;13.448;2023-07-20T00:35:44;17.40;99.90
18741;DHT22;9499;52.472;13.448;2023-07-20T00:38:11;17.30;99.90
18741;DHT22;9499;52.472;13.448;2023-07-20T00:40:38;17.20;99.90
18741;DHT22;9499;52.472;13.448;2023-07-20T00:43:04;17.20;99.90
18741;DHT22;9499;52.472;13.448;2023-07-20T00:45:33;17.30;99.90
18741;DHT22;9499;52.472;13.448;2023-07-20T00:48:01;17.20;99.90
18741;DHT22;9499;52.472;13.448;2023-07-20T00:50:28;17.10;99.90
18741;DHT22;9499;52.472;13.448;2023-07-20T00:52:55;17.10;99.90
18741;DHT22;9499;52.472;13.448;2023-07-20T00:55:23;17.00;99.90
18741;DHT22;9499;52.472;13.448;2023-07-20T00:57:50;17.00;99.90
18741;DHT22;9499;52.472;13.448;2023-07-20T01:00:17;16.90;99.90
18741;DHT22;9499;52.472;13.448;2023-07-20T01:02:44;16.90;99.90
18741;DHT22;9499;52.472;13.448;2023-07-20T01:05:12;16.90;99.90
18741;DHT22;9499;52.472;13.448;2023-07-20T01:07:47;16.80;99.90
18741;DHT22;9499;52.472;13.448;2023-07-20T01:10:19;16.90;99.90
18741;DHT22;9499;52.472;13.448;2023-07-20T01:12:47;17.00;99.90
18741;DHT22;9499;52.472;13.448;2023-07-20T01:15:14;16.90;99.90
18741;DHT22;9499;52.472;13.448;2023-07-20T01:17:41;16.90;99.90
18741;DHT22;9499;52.472;13.448;2023-07-20T01:20:09;16.80;99.90
18741;DHT22;9499;52.472;13.448;2023-07-20T01:22:54;16.90;99.90
18741;DHT22;9499;52.472;13.448;2023-07-20T01:25:30;16.80;99.90
18741;DHT22;9499;52.472;13.448;2023-07-20T01:28:22;16.90;99.90
18741;DHT22;9499;52.472;13.448;2023-07-20T01:30:59;16.90;99.90
18741;DHT22;9499;52.472;13.448;2023-07-20T01:33:32;16.90;99.90
18741;DHT22;9499;52.472;13.448;2023-07-20T01:36:00;16.80;99.90
18741;DHT22;9499;52.472;13.448;2023-07-20T01:38:28;16.80;99.90
18741;DHT22;9499;52.472;13.448;2023-07-20T01:40:55;16.70;99.90
18741;DHT22;9499;52.472;13.448;2023-07-20T01:43:23;16.70;99.90
18741;DHT22;9499;52.472;13.448;2023-07-20T01:45:49;16.70;99.90
18741;DHT22;9499;52.472;13.448;2023-07-20T01:48:16;16.70;99.90
18741;DHT22;9499;52.472;13.448;2023-07-20T01:50:44;16.70;99.90
18741;DHT22;9499;52.472;13.448;2023-07-20T01:53:10;16.70;99.90
18741;DHT22;9499;52.472;13.448;2023-07-20T01:55:37;16.70;99.90
18741;DHT22;9499;52.472;13.448;2023-07-20T01:58:03;16.70;99.90
18741;DHT22;9499;52.472;13.448;2023-07-20T02:00:31;16.70;99.90
18741;DHT22;9499;52.472;13.448;2023-07-20T02:02:57;16.70;99.90
18741;DHT22;9499;52.472;13.448;2023-07-20T02:05:24;16.70;99.90
18741;DHT22;9499;52.472;13.448;2023-07-20T02:07:52;16.60;99.90
18741;DHT22;9499;52.472;13.448;2023-07-20T02:10:18;16.60;99.90
18741;DHT22;9499;52.472;13.448;2023-07-20T02:12:45;16.60;99.90
18741;DHT22;9499;52.472;13.448;2023-07-20T02:15:11;16.60;99.90
18741;DHT22;9499;52.472;13.448;2023-07-20T02:17:40;16.50;99.90
18741;DHT22;9499;52.472;13.448;2023-07-20T02:20:07;16.50;99.90
18741;DHT22;9499;52.472;13.448;2023-07-20T02:22:35;16.50;99.90
18741;DHT22;9499;52.472;13.448;2023-07-20T02:25:03;16.50;99.90
18741;DHT22;9499;52.472;13.448;2023-07-20T02:27:30;16.50;99.90
18741;DHT22;9499;52.472;13.448;2023-07-20T02:29:57;16.50;99.90
18741;DHT22;9499;52.472;13.448;2023-07-20T02:32:23;16.50;99.90
18741;DHT22;9499;52.472;13.448;2023-07-20T02:34:50;16.40;99.90
18741;DHT22;9499;52.472;13.448;2023-07-20T02:37:16;16.50;99.90
18741;DHT22;9499;52.472;13.448;2023-07-20T02:39:43;16.50;99.90
18741;DHT22;9499;52.472;13.448;2023-07-20T02:42:11;16.50;99.90
18741;DHT22;9499;52.472;13.448;2023-07-20T02:44:38;16.50;99.90
18741;DHT22;9499;52.472;13.448;2023-07-20T02:47:05;16.60;99.90
18741;DHT22;9499;52.472;13.448;2023-07-20T02:49:31;16.60;99.90
18741;DHT22;9499;52.472;13.448;2023-07-20T02:51:58;16.70;99.90
18741;DHT22;9499;52.472;13.448;2023-07-20T02:54:24;16.70;99.90
18741;DHT22;9499;52.472;13.448;2023-07-20T02:56:51;16.60;99.90
18741;DHT22;9499;52.472;13.448;2023-07-20T02:59:19;16.50;99.90
18741;DHT22;9499;52.472;13.448;2023-07-20T03:01:46;16.40;99.90
18741;DHT22;9499;52.472;13.448;2023-07-20T03:04:12;16.40;99.90
18741;DHT22;9499;52.472;13.448;2023-07-20T03:06:39;16.40;99.90
18741;DHT22;9499;52.472;13.448;2023-07-20T03:09:05;16.40;99.90
18741;DHT22;9499;52.472;13.448;2023-07-20T03:11:32;16.40;99.90
18741;DHT22;9499;52.472;13.448;2023-07-20T03:13:59;16.40;99.90
18741;DHT22;9499;52.472;13.448;2023-07-20T03:16:27;16.40;99.90
18741;DHT22;9499;52.472;13.448;2023-07-20T03:18:54;16.40;99.90
18741;DHT22;9499;52.472;13.448;2023-07-20T03:21:20;16.40;99.90
18741;DHT22;9499;52.472;13.448;2023-07-20T03:23:47;16.40;99.90
18741;DHT22;9499;52.472;13.448;2023-07-20T03:26:13;16.30;99.90
18741;DHT22;9499;52.472;13.448;2023-07-20T03:28:40;16.30;99.90
18741;DHT22;9499;52.472;13.448;2023-07-20T03:31:07;16.40;99.90
18741;DHT22;9499;52.472;13.448;2023-07-20T03:33:35;16.40;99.90
18741;DHT22;9499;52.472;13.448;2023-07-20T03:36:01;16.40;99.90
18741;DHT22;9499;52.472;13.448;2023-07-20T03:38:28;16.50;99.90
18741;DHT22;9499;52.472;13.448;2023-07-20T03:40:56;16.50;99.90
18741;DHT22;9499;52.472;13.448;2023-07-20T03:43:23;16.50;99.90
18741;DHT22;9499;52.472;13.448;2023-07-20T03:45:50;16.50;99.90
18741;DHT22;9499;52.472;13.448;2023-07-20T03:48:17;16.50;99.90
18741;DHT22;9499;52.472;13.448;2023-07-20T03:50:45;16.60;99.90
18741;DHT22;9499;52.472;13.448;2023-07-20T03:53:13;16.50;99.90
18741;DHT22;9499;52.472;13.448;2023-07-20T03:55:39;16.50;99.90
18741;DHT22;9499;52.472;13.448;2023-07-20T03:58:06;16.50;99.90
18741;DHT22;9499;52.472;13.448;2023-07-20T04:00:33;16.50;99.90
18741;DHT22;9499;52.472;13.448;2023-07-20T04:03:00;16.50;99.90
18741;DHT22;9499;52.472;13.448;2023-07-20T04:05:26;16.50;99.90
18741;DHT22;9499;52.472;13.448;2023-07-20T04:07:54;16.50;99.90
18741;DHT22;9499;52.472;13.448;2023-07-20T04:10:21;16.50;99.90
18741;DHT22;9499;52.472;13.448;2023-07-20T04:12:47;16.50;99.90
18741;DHT22;9499;52.472;13.448;2023-07-20T04:15:14;16.50;99.90
18741;DHT22;9499;52.472;13.448;2023-07-20T04:17:41;16.50;99.90
18741;DHT22;9499;52.472;13.448;2023-07-20T04:20:08;16.50;99.90
18741;DHT22;9499;52.472;13.448;2023-07-20T04:22:34;16.60;99.90
18741;DHT22;9499;52.472;13.448;2023-07-20T04:25:03;16.50;99.90
18741;DHT22;9499;52.472;13.448;2023-07-20T04:27:30;16.50;99.90
18741;DHT22;9499;52.472;13.448;2023-07-20T04:29:58;16.50;99.90
18741;DHT22;9499;52.472;13.448;2023-07-20T04:32:25;16.50;99.90
18741;DHT22;9499;52.472;13.448;2023-07-20T04:34:51;16.40;99.90
18741;DHT22;9499;52.472;13.448;2023-07-20T04:37:18;16.50;99.90
18741;DHT22;9499;52.472;13.448;2023-07-20T04:39:45;16.40;99.90
18741;DHT22;9499;52.472;13.448;2023-07-20T04:42:12;16.40;99.90
18741;DHT22;9499;52.472;13.448;2023-07-20T04:44:39;16.40;99.90
18741;DHT22;9499;52.472;13.448;2023-07-20T04:47:06;16.40;99.90
18741;DHT22;9499;52.472;13.448;2023-07-20T04:49:33;16.50;99.90
18741;DHT22;9499;52.472;13.448;2023-07-20T04:52:01;16.60;99.90
18741;DHT22;9499;52.472;13.448;2023-07-20T04:54:29;16.50;99.90
18741;DHT22;9499;52.472;13.448;2023-07-20T04:56:55;16.60;99.90
18741;DHT22;9499;52.472;13.448;2023-07-20T04:59:23;16.60;99.90
18741;DHT22;9499;52.472;13.448;2023-07-20T05:01:49;16.50;99.90
18741;DHT22;9499;52.472;13.448;2023-07-20T05:04:16;16.50;99.90
18741;DHT22;9499;52.472;13.448;2023-07-20T05:06:42;16.50;99.90
18741;DHT22;9499;52.472;13.448;2023-07-20T05:09:09;16.50;99.90
18741;DHT22;9499;52.472;13.448;2023-07-20T05:11:35;16.50;99.90
18741;DHT22;9499;52.472;13.448;2023-07-20T05:14:02;16.60;99.90
18741;DHT22;9499;52.472;13.448;2023-07-20T05:16:30;16.60;99.90
18741;DHT22;9499;52.472;13.448;2023-07-20T05:18:56;16.60;99.90
18741;DHT22;9499;52.472;13.448;2023-07-20T05:21:23;16.60;95.20
18741;DHT22;9499;52.472;13.448;2023-07-20T05:23:50;16.60;96.80
18741;DHT22;9499;52.472;13.448;2023-07-20T05:26:16;16.60;91.50
18741;DHT22;9499;52.472;13.448;2023-07-20T05:28:43;16.60;77.60
18741;DHT22;9499;52.472;13.448;2023-07-20T05:31:09;16.70;80.20
18741;DHT22;9499;52.472;13.448;2023-07-20T05:33:37;16.70;45.70
18741;DHT22;9499;52.472;13.448;2023-07-20T05:36:04;16.60;12.40
18741;DHT22;9499;52.472;13.448;2023-07-20T05:38:31;16.70;17.90
18741;DHT22;9499;52.472;13.448;2023-07-20T05:40:59;16.70;11.90
18741;DHT22;9499;52.472;13.448;2023-07-20T05:43:27;16.70;7.30
18741;DHT22;9499;52.472;13.448;2023-07-20T05:45:53;16.80;1.00
18741;DHT22;9499;52.472;13.448;2023-07-20T05:48:20;16.80;1.00
18741;DHT22;9499;52.472;13.448;2023-07-20T05:50:48;16.80;1.00
18741;DHT22;9499;52.472;13.448;2023-07-20T05:53:14;16.80;1.00
18741;DHT22;9499;52.472;13.448;2023-07-20T05:55:41;16.80;1.00
18741;DHT22;9499;52.472;13.448;2023-07-20T05:58:08;16.80;1.00
18741;DHT22;9499;52.472;13.448;2023-07-20T06:00:34;16.90;1.00
18741;DHT22;9499;52.472;13.448;2023-07-20T06:03:01;17.00;1.00
18741;DHT22;9499;52.472;13.448;2023-07-20T06:05:29;17.10;1.00
18741;DHT22;9499;52.472;13.448;2023-07-20T06:07:57;17.20;1.00
18741;DHT22;9499;52.472;13.448;2023-07-20T06:10:25;17.20;1.00
18741;DHT22;9499;52.472;13.448;2023-07-20T06:12:52;17.20;1.00
18741;DHT22;9499;52.472;13.448;2023-07-20T06:15:26;17.20;1.00
18741;DHT22;9499;52.472;13.448;2023-07-20T06:17:54;17.20;1.00
18741;DHT22;9499;52.472;13.448;2023-07-20T06:20:22;17.20;1.00
18741;DHT22;9499;52.472;13.448;2023-07-20T06:22:48;17.20;1.00
18741;DHT22;9499;52.472;13.448;2023-07-20T06:25:16;17.20;1.00
18741;DHT22;9499;52.472;13.448;2023-07-20T06:27:43;17.20;1.00
18741;DHT22;9499;52.472;13.448;2023-07-20T06:30:10;17.20;1.00
18741;DHT22;9499;52.472;13.448;2023-07-20T06:32:37;17.20;1.00
18741;DHT22;9499;52.472;13.448;2023-07-20T06:35:05;17.20;1.00
18741;DHT22;9499;52.472;13.448;2023-07-20T06:37:31;17.30;1.00
18741;DHT22;9499;52.472;13.448;2023-07-20T06:39:58;17.40;1.00
18741;DHT22;9499;52.472;13.448;2023-07-20T06:42:26;17.40;1.00
18741;DHT22;9499;52.472;13.448;2023-07-20T06:44:52;17.40;1.00
18741;DHT22;9499;52.472;13.448;2023-07-20T06:47:19;17.30;1.00
18741;DHT22;9499;52.472;13.448;2023-07-20T06:49:45;17.30;1.00
18741;DHT22;9499;52.472;13.448;2023-07-20T06:52:12;17.30;1.00
18741;DHT22;9499;52.472;13.448;2023-07-20T06:54:38;17.30;1.00
18741;DHT22;9499;52.472;13.448;2023-07-20T06:57:05;17.30;1.00
18741;DHT22;9499;52.472;13.448;2023-07-20T06:59:33;17.30;1.00
18741;DHT22;9499;52.472;13.448;2023-07-20T07:02:00;17.30;1.00
18741;DHT22;9499;52.472;13.448;2023-07-20T07:04:26;17.30;1.00
18741;DHT22;9499;52.472;13.448;2023-07-20T07:06:53;17.40;1.00
18741;DHT22;9499;52.472;13.448;2023-07-20T07:09:20;17.50;1.00
18741;DHT22;9499;52.472;13.448;2023-07-20T07:11:47;17.70;1.00
18741;DHT22;9499;52.472;13.448;2023-07-20T07:14:13;17.70;1.00
18741;DHT22;9499;52.472;13.448;2023-07-20T07:16:41;17.80;1.00
18741;DHT22;9499;52.472;13.448;2023-07-20T07:19:08;17.80;1.00
18741;DHT22;9499;52.472;13.448;2023-07-20T07:21:34;17.90;99.90
18741;DHT22;9499;52.472;13.448;2023-07-20T07:24:01;17.90;1.00
18741;DHT22;9499;52.472;13.448;2023-07-20T07:26:27;18.00;99.90
18741;DHT22;9499;52.472;13.448;2023-07-20T07:28:54;18.10;99.90
18741;DHT22;9499;52.472;13.448;2023-07-20T07:31:20;18.10;99.90
18741;DHT22;9499;52.472;13.448;2023-07-20T07:33:49;18.20;99.90
18741;DHT22;9499;52.472;13.448;2023-07-20T07:36:16;18.30;99.90
18741;DHT22;9499;52.472;13.448;2023-07-20T07:38:43;18.40;1.00
18741;DHT22;9499;52.472;13.448;2023-07-20T07:41:09;18.50;1.00
18741;DHT22;9499;52.472;13.448;2023-07-20T07:43:36;18.40;1.00
18741;DHT22;9499;52.472;13.448;2023-07-20T07:46:03;18.40;1.00
18741;DHT22;9499;52.472;13.448;2023-07-20T07:48:30;18.50;1.00
18741;DHT22;9499;52.472;13.448;2023-07-20T07:50:58;18.50;99.90
18741;DHT22;9499;52.472;13.448;2023-07-20T07:53:24;18.50;99.90
18741;DHT22;9499;52.472;13.448;2023-07-20T07:55:52;18.50;1.00
18741;DHT22;9499;52.472;13.448;2023-07-20T07:58:18;18.50;99.90
18741;DHT22;9499;52.472;13.448;2023-07-20T08:00:45;18.60;99.90
18741;DHT22;9499;52.472;13.448;2023-07-20T08:03:13;18.80;99.90
18741;DHT22;9499;52.472;13.448;2023-07-20T08:05:39;18.70;1.00
18741;DHT22;9499;52.472;13.448;2023-07-20T08:08:07;18.70;1.00
18741;DHT22;9499;52.472;13.448;2023-07-20T08:10:34;18.70;1.00
18741;DHT22;9499;52.472;13.448;2023-07-20T08:13:01;18.70;1.00
18741;DHT22;9499;52.472;13.448;2023-07-20T08:15:27;18.80;1.00
18741;DHT22;9499;52.472;13.448;2023-07-20T08:17:54;18.90;1.00
18741;DHT22;9499;52.472;13.448;2023-07-20T08:20:21;19.10;1.00
18741;DHT22;9499;52.472;13.448;2023-07-20T08:22:52;19.20;99.90
18741;DHT22;9499;52.472;13.448;2023-07-20T08:25:20;19.30;99.90
18741;DHT22;9499;52.472;13.448;2023-07-20T08:27:47;19.30;1.00
18741;DHT22;9499;52.472;13.448;2023-07-20T08:30:13;19.30;27.10
18741;DHT22;9499;52.472;13.448;2023-07-20T08:32:40;19.30;99.90
18741;DHT22;9499;52.472;13.448;2023-07-20T08:35:07;19.30;1.00
18741;DHT22;9499;52.472;13.448;2023-07-20T08:37:34;19.30;1.00
18741;DHT22;9499;52.472;13.448;2023-07-20T08:40:00;19.20;1.00
18741;DHT22;9499;52.472;13.448;2023-07-20T08:42:30;19.20;1.00
18741;DHT22;9499;52.472;13.448;2023-07-20T08:44:57;19.30;99.90
18741;DHT22;9499;52.472;13.448;2023-07-20T08:47:25;19.30;1.00
18741;DHT22;9499;52.472;13.448;2023-07-20T08:49:54;19.30;1.00
18741;DHT22;9499;52.472;13.448;2023-07-20T08:52:21;19.30;99.20
18741;DHT22;9499;52.472;13.448;2023-07-20T08:54:49;19.30;1.00
18741;DHT22;9499;52.472;13.448;2023-07-20T08:57:17;19.30;1.00
18741;DHT22;9499;52.472;13.448;2023-07-20T08:59:45;19.40;1.00
18741;DHT22;9499;52.472;13.448;2023-07-20T09:02:15;19.30;1.00
18741;DHT22;9499;52.472;13.448;2023-07-20T09:04:44;19.30;99.90
18741;DHT22;9499;52.472;13.448;2023-07-20T09:07:10;19.30;1.00
18741;DHT22;9499;52.472;13.448;2023-07-20T09:09:39;19.30;1.00
18741;DHT22;9499;52.472;13.448;2023-07-20T09:12:13;19.20;99.90
18741;DHT22;9499;52.472;13.448;2023-07-20T09:14:42;19.20;1.00
18741;DHT22;9499;52.472;13.448;2023-07-20T09:17:12;19.20;99.90
18741;DHT22;9499;52.472;13.448;2023-07-20T09:19:42;19.40;99.90
18741;DHT22;9499;52.472;13.448;2023-07-20T09:22:11;19.40;1.00
18741;DHT22;9499;52.472;13.448;2023-07-20T09:24:38;19.50;99.90
18741;DHT22;9499;52.472;13.448;2023-07-20T09:27:06;19.50;1.00
18741;DHT22;9499;52.472;13.448;2023-07-20T09:29:33;19.60;99.90
18741;DHT22;9499;52.472;13.448;2023-07-20T09:32:00;19.70;1.00
18741;DHT22;9499;52.472;13.448;2023-07-20T09:34:30;19.70;1.00
18741;DHT22;9499;52.472;13.448;2023-07-20T09:36:57;19.70;1.00
18741;DHT22;9499;52.472;13.448;2023-07-20T09:39:23;19.70;1.00
18741;DHT22;9499;52.472;13.448;2023-07-20T09:41:51;19.70;1.00
18741;DHT22;9499;52.472;13.448;2023-07-20T09:44:18;19.70;1.00
18741;DHT22;9499;52.472;13.448;2023-07-20T09:46:45;19.70;1.00
18741;DHT22;9499;52.472;13.448;2023-07-20T09:49:13;19.70;1.00
18741;DHT22;9499;52.472;13.448;2023-07-20T09:51:41;19.80;1.00
18741;DHT22;9499;52.472;13.448;2023-07-20T09:54:08;20.00;99.90
18741;DHT22;9499;52.472;13.448;2023-07-20T09:56:38;20.10;1.00
18741;DHT22;9499;52.472;13.448;2023-07-20T09:59:04;20.00;1.00
18741;DHT22;9499;52.472;13.448;2023-07-20T10:01:33;20.00;1.00
18741;DHT22;9499;52.472;13.448;2023-07-20T10:04:02;20.00;1.00
18741;DHT22;9499;52.472;13.448;2023-07-20T10:06:32;19.90;99.90
18741;DHT22;9499;52.472;13.448;2023-07-20T10:09:02;19.80;1.00
18741;DHT22;9499;52.472;13.448;2023-07-20T10:11:31;19.80;1.00
18741;DHT22;9499;52.472;13.448;2023-07-20T10:13:59;19.70;1.00
18741;DHT22;9499;52.472;13.448;2023-07-20T10:16:28;19.60;79.40
18741;DHT22;9499;52.472;13.448;2023-07-20T10:19:02;19.60;99.90
18741;DHT22;9499;52.472;13.448;2023-07-20T10:21:30;19.60;97.30
18741;DHT22;9499;52.472;13.448;2023-07-20T10:23:57;19.60;99.90
18741;DHT22;9499;52.472;13.448;2023-07-20T10:26:25;19.60;1.00
18741;DHT22;9499;52.472;13.448;2023-07-20T10:28:52;19.60;1.00
18741;DHT22;9499;52.472;13.448;2023-07-20T10:31:19;19.70;1.00
18741;DHT22;9499;52.472;13.448;2023-07-20T10:33:46;19.90;99.90
18741;DHT22;9499;52.472;13.448;2023-07-20T10:36:15;20.20;99.90
18741;DHT22;9499;52.472;13.448;2023-07-20T10:38:51;20.50;1.00
18741;DHT22;9499;52.472;13.448;2023-07-20T10:41:19;20.60;1.00
18741;DHT22;9499;52.472;13.448;2023-07-20T10:43:48;20.40;1.00
18741;DHT22;9499;52.472;13.448;2023-07-20T10:46:33;20.20;1.00
18741;DHT22;9499;52.472;13.448;2023-07-20T10:49:01;20.00;99.90
18741;DHT22;9499;52.472;13.448;2023-07-20T10:51:28;19.90;99.90
18741;DHT22;9499;52.472;13.448;2023-07-20T10:53:55;19.80;99.90
18741;DHT22;9499;52.472;13.448;2023-07-20T10:56:26;19.80;1.00
18741;DHT22;9499;52.472;13.448;2023-07-20T10:58:57;19.70;1.00
18741;DHT22;9499;52.472;13.448;2023-07-20T11:01:27;19.70;1.00
18741;DHT22;9499;52.472;13.448;2023-07-20T11:03:57;19.70;99.90
18741;DHT22;9499;52.472;13.448;2023-07-20T11:06:32;19.70;99.90
18741;DHT22;9499;52.472;13.448;2023-07-20T11:09:08;19.60;1.00
18741;DHT22;9499;52.472;13.448;2023-07-20T11:11:37;19.60;99.90
18741;DHT22;9499;52.472;13.448;2023-07-20T11:14:08;19.60;99.90
18741;DHT22;9499;52.472;13.448;2023-07-20T11:16:36;19.60;2.70
18741;DHT22;9499;52.472;13.448;2023-07-20T11:19:03;19.60;1.00
18741;DHT22;9499;52.472;13.448;2023-07-20T11:21:35;19.60;1.00
18741;DHT22;9499;52.472;13.448;2023-07-20T11:24:03;19.40;99.90
18741;DHT22;9499;52.472;13.448;2023-07-20T11:26:30;19.40;1.00
18741;DHT22;9499;52.472;13.448;2023-07-20T11:28:58;19.30;99.90
18741;DHT22;9499;52.472;13.448;2023-07-20T11:31:26;19.30;1.00
18741;DHT22;9499;52.472;13.448;2023-07-20T11:33:53;19.30;39.70
18741;DHT22;9499;52.472;13.448;2023-07-20T11:36:19;19.30;99.90
18741;DHT22;9499;52.472;13.448;2023-07-20T11:38:46;19.30;99.90
18741;DHT22;9499;52.472;13.448;2023-07-20T11:41:13;19.40;96.20
18741;DHT22;9499;52.472;13.448;2023-07-20T11:43:41;19.50;99.90
18741;DHT22;9499;52.472;13.448;2023-07-20T11:46:07;19.60;1.00
18741;DHT22;9499;52.472;13.448;2023-07-20T11:48:35;19.60;1.00
18741;DHT22;9499;52.472;13.448;2023-07-20T11:51:02;19.60;1.00
18741;DHT22;9499;52.472;13.448;2023-07-20T11:53:29;19.70;99.90
18741;DHT22;9499;52.472;13.448;2023-07-20T11:55:55;20.00;1.00
18741;DHT22;9499;52.472;13.448;2023-07-20T11:58:23;20.40;1.00
18741;DHT22;9499;52.472;13.448;2023-07-20T12:00:49;20.50;99.90
18741;DHT22;9499;52.472;13.448;2023-07-20T12:03:16;20.70;1.00
18741;DHT22;9499;52.472;13.448;2023-07-20T12:05:45;20.70;1.00
18741;DHT22;9499;52.472;13.448;2023-07-20T12:08:12;20.90;99.90
18741;DHT22;9499;52.472;13.448;2023-07-20T12:10:40;21.10;99.90
18741;DHT22;9499;52.472;13.448;2023-07-20T12:13:09;21.30;53.70
18741;DHT22;9499;52.472;13.448;2023-07-20T12:15:37;21.40;1.00
18741;DHT22;9499;52.472;13.448;2023-07-20T12:18:03;21.20;1.00
18741;DHT22;9499;52.472;13.448;2023-07-20T12:20:31;21.00;1.00
18741;DHT22;9499;52.472;13.448;2023-07-20T12:23:01;20.80;1.00
18741;DHT22;9499;52.472;13.448;2023-07-20T12:25:37;20.60;1.00
18741;DHT22;9499;52.472;13.448;2023-07-20T12:28:07;20.50;1.00
18741;DHT22;9499;52.472;13.448;2023-07-20T12:30:34;20.50;83.00
18741;DHT22;9499;52.472;13.448;2023-07-20T12:33:01;20.50;99.90
18741;DHT22;9499;52.472;13.448;2023-07-20T12:35:28;20.30;99.90
18741;DHT22;9499;52.472;13.448;2023-07-20T12:37:55;20.20;1.00
18741;DHT22;9499;52.472;13.448;2023-07-20T12:40:23;20.20;1.00
18741;DHT22;9499;52.472;13.448;2023-07-20T12:42:49;20.30;99.90
18741;DHT22;9499;52.472;13.448;2023-07-20T12:45:16;20.40;1.00
18741;DHT22;9499;52.472;13.448;2023-07-20T12:47:43;20.50;1.00
18741;DHT22;9499;52.472;13.448;2023-07-20T12:50:09;20.50;99.90
18741;DHT22;9499;52.472;13.448;2023-07-20T12:52:37;20.60;1.00
18741;DHT22;9499;52.472;13.448;2023-07-20T12:55:04;20.70;1.00
18741;DHT22;9499;52.472;13.448;2023-07-20T12:57:34;20.80;99.90
18741;DHT22;9499;52.472;13.448;2023-07-20T13:00:01;21.20;99.90
18741;DHT22;9499;52.472;13.448;2023-07-20T13:02:29;21.50;19.10
18741;DHT22;9499;52.472;13.448;2023-07-20T13:04:55;21.80;1.00
18741;DHT22;9499;52.472;13.448;2023-07-20T13:07:29;21.90;1.00
18741;DHT22;9499;52.472;13.448;2023-07-20T13:09:57;22.30;99.90
18741;DHT22;9499;52.472;13.448;2023-07-20T13:12:24;22.60;99.90
18741;DHT22;9499;52.472;13.448;2023-07-20T13:14:52;22.70;25.30
18741;DHT22;9499;52.472;13.448;2023-07-20T13:17:18;22.90;1.00
18741;DHT22;9499;52.472;13.448;2023-07-20T13:19:45;23.10;1.00
18741;DHT22;9499;52.472;13.448;2023-07-20T13:22:11;23.20;1.00
18741;DHT22;9499;52.472;13.448;2023-07-20T13:24:39;23.30;1.00
18741;DHT22;9499;52.472;13.448;2023-07-20T13:27:05;23.30;99.90
18741;DHT22;9499;52.472;13.448;2023-07-20T13:29:32;23.30;99.90
18741;DHT22;9499;52.472;13.448;2023-07-20T13:32:00;23.40;99.90
18741;DHT22;9499;52.472;13.448;2023-07-20T13:34:28;23.60;99.90
18741;DHT22;9499;52.472;13.448;2023-07-20T13:36:54;23.40;99.90
18741;DHT22;9499;52.472;13.448;2023-07-20T13:39:21;23.30;99.90
18741;DHT22;9499;52.472;13.448;2023-07-20T13:41:49;23.80;99.90
18741;DHT22;9499;52.472;13.448;2023-07-20T13:44:16;24.00;99.90
18741;DHT22;9499;52.472;13.448;2023-07-20T13:46:42;24.20;99.90
18741;DHT22;9499;52.472;13.448;2023-07-20T13:49:10;24.40;99.90
18741;DHT22;9499;52.472;13.448;2023-07-20T13:51:37;24.40;99.90
18741;DHT22;9499;52.472;13.448;2023-07-20T13:54:03;24.30;99.90
18741;DHT22;9499;52.472;13.448;2023-07-20T13:56:30;24.50;99.90
18741;DHT22;9499;52.472;13.448;2023-07-20T13:58:56;24.60;99.90
18741;DHT22;9499;52.472;13.448;2023-07-20T14:01:23;24.70;99.90
18741;DHT22;9499;52.472;13.448;2023-07-20T14:03:50;24.70;99.90
18741;DHT22;9499;52.472;13.448;2023-07-20T14:06:17;24.60;99.90
18741;DHT22;9499;52.472;13.448;2023-07-20T14:08:44;24.60;99.90
18741;DHT22;9499;52.472;13.448;2023-07-20T14:11:12;24.60;99.90
18741;DHT22;9499;52.472;13.448;2023-07-20T14:13:38;24.30;99.90
18741;DHT22;9499;52.472;13.448;2023-07-20T14:16:05;24.30;99.90
18741;DHT22;9499;52.472;13.448;2023-07-20T14:18:32;24.50;99.90
18741;DHT22;9499;52.472;13.448;2023-07-20T14:20:59;24.50;99.90
18741;DHT22;9499;52.472;13.448;2023-07-20T14:23:28;24.60;99.90
18741;DHT22;9499;52.472;13.448;2023-07-20T14:25:56;24.90;99.90
18741;DHT22;9499;52.472;13.448;2023-07-20T14:28:22;25.00;99.90
18741;DHT22;9499;52.472;13.448;2023-07-20T14:30:49;25.00;99.90
18741;DHT22;9499;52.472;13.448;2023-07-20T14:33:15;25.10;99.90
18741;DHT22;9499;52.472;13.448;2023-07-20T14:35:42;25.30;99.90
18741;DHT22;9499;52.472;13.448;2023-07-20T14:38:08;25.40;99.90
18741;DHT22;9499;52.472;13.448;2023-07-20T14:40:36;25.30;99.90
18741;DHT22;9499;52.472;13.448;2023-07-20T14:43:03;25.40;99.90
18741;DHT22;9499;52.472;13.448;2023-07-20T14:45:29;25.40;99.90
18741;DHT22;9499;52.472;13.448;2023-07-20T14:47:56;25.50;99.90
18741;DHT22;9499;52.472;13.448;2023-07-20T14:50:23;25.20;99.90
18741;DHT22;9499;52.472;13.448;2023-07-20T14:52:49;24.90;99.90
18741;DHT22;9499;52.472;13.448;2023-07-20T14:55:16;24.80;99.90
18741;DHT22;9499;52.472;13.448;2023-07-20T14:57:45;24.70;99.90
18741;DHT22;9499;52.472;13.448;2023-07-20T15:00:12;24.30;99.90
18741;DHT22;9499;52.472;13.448;2023-07-20T15:02:40;24.10;99.90
18741;DHT22;9499;52.472;13.448;2023-07-20T15:05:08;23.90;99.90
18741;DHT22;9499;52.472;13.448;2023-07-20T15:07:36;23.70;99.90
18741;DHT22;9499;52.472;13.448;2023-07-20T15:10:03;23.70;99.90
18741;DHT22;9499;52.472;13.448;2023-07-20T15:12:30;23.60;99.90
18741;DHT22;9499;52.472;13.448;2023-07-20T15:15:06;23.60;99.90
18741;DHT22;9499;52.472;13.448;2023-07-20T15:17:34;23.50;99.90
18741;DHT22;9499;52.472;13.448;2023-07-20T15:20:01;23.80;99.90
18741;DHT22;9499;52.472;13.448;2023-07-20T15:22:30;24.30;99.90
18741;DHT22;9499;52.472;13.448;2023-07-20T15:24:57;24.90;99.90
18741;DHT22;9499;52.472;13.448;2023-07-20T15:27:23;25.40;99.90
18741;DHT22;9499;52.472;13.448;2023-07-20T15:29:50;25.70;99.90
18741;DHT22;9499;52.472;13.448;2023-07-20T15:32:18;25.50;99.90
18741;DHT22;9499;52.472;13.448;2023-07-20T15:34:46;25.10;99.90
18741;DHT22;9499;52.472;13.448;2023-07-20T15:37:13;24.70;99.90